Time;durP1;ratioP1;P1;durP2;ratioP2;P2;SDS_P1;SDS_P2;PMS_P1;PMS_P2;Temp;Humidity;BMP_temperature;BMP_pressure;BME280_temperature;BME280_humidity;BME280_pressure;Samples;Min_cycle;Max_cycle;Signal;HPM_P1;HPM_P2
2022/05/31 00:00:24;;;;;;;3.38;1.23;;;9.80;99.90;;;;;;5014309;28;20026;-73
2022/05/31 00:02:51;;;;;;;3.40;0.90;;;9.70;99.90;;;;;;5014000;28;20480;-73
2022/05/31 00:05:17;;;;;;;3.63;0.95;;;9.80;99.90;;;;;;5014250;28;20021;-73
2022/05/31 00:07:43;;;;;;;1.35;0.90;;;9.80;99.90;;;;;;5014484;28;20026;-73
2022/05/31 00:10:11;;;;;;;0.98;0.65;;;9.70;99.90;;;;;;5014107;28;20026;-73
2022/05/31 00:12:38;;;;;;;1.10;0.82;;;9.70;99.90;;;;;;5014383;28;20076;-73
2022/05/31 00:15:05;;;;;;;0.95;0.80;;;9.70;99.90;;;;;;5014287;28;20112;-74
2022/05/31 00:17:31;;;;;;;1.85;0.95;;;9.60;99.90;;;;;;5014114;28;20034;-74
2022/05/31 00:19:57;;;;;;;4.13;0.85;;;9.60;99.90;;;;;;5012890;28;20072;-73
2022/05/31 00:22:24;;;;;;;1.75;0.65;;;9.60;99.90;;;;;;5014050;28;20026;-73
2022/05/31 00:24:50;;;;;;;1.10;0.80;;;9.70;99.90;;;;;;5014384;28;20038;-73
2022/05/31 00:27:19;;;;;;;1.35;0.90;;;9.70;99.90;;;;;;5014131;28;20072;-73
2022/05/31 00:29:47;;;;;;;1.40;0.85;;;9.70;99.90;;;;;;5013779;28;20512;-74
2022/05/31 00:32:14;;;;;;;0.70;0.70;;;9.70;99.90;;;;;;5013302;28;20175;-73
2022/05/31 00:34:43;;;;;;;0.60;0.60;;;9.60;99.90;;;;;;5013517;28;20075;-73
2022/05/31 00:37:09;;;;;;;14.73;1.10;;;9.60;99.90;;;;;;5012691;28;20481;-73
2022/05/31 00:39:35;;;;;;;1.65;1.15;;;9.70;99.90;;;;;;5013096;28;20450;-74
2022/05/31 00:42:04;;;;;;;1.63;1.42;;;9.60;99.90;;;;;;5012964;28;20037;-73
2022/05/31 00:44:31;;;;;;;1.13;1.10;;;9.60;99.90;;;;;;5014083;28;20080;-73
2022/05/31 00:47:01;;;;;;;2.22;0.80;;;9.60;99.90;;;;;;5012742;28;20034;-73
2022/05/31 00:49:51;;;;;;;3.70;1.05;;;9.60;99.90;;;;;;5012629;28;20032;-73
2022/05/31 00:52:41;;;;;;;2.83;0.88;;;9.50;99.90;;;;;;5012630;28;20065;-73
2022/05/31 00:55:24;;;;;;;0.88;0.88;;;9.40;99.90;;;;;;5016715;28;20429;-73
2022/05/31 00:58:11;;;;;;;2.10;1.10;;;9.40;99.90;;;;;;5016224;28;20112;-73
2022/05/31 01:00:38;;;;;;;1.40;1.08;;;9.30;99.90;;;;;;5016535;28;20080;-73
2022/05/31 01:03:05;;;;;;;0.80;0.80;;;9.20;99.90;;;;;;5017460;28;20033;-73
2022/05/31 01:05:31;;;;;;;2.70;0.85;;;9.20;99.90;;;;;;5016175;28;20026;-73
2022/05/31 01:07:57;;;;;;;0.63;0.63;;;9.10;99.90;;;;;;5017257;28;20049;-73
2022/05/31 01:10:23;;;;;;;1.17;1.08;;;9.00;99.90;;;;;;5017044;28;20100;-74
2022/05/31 01:12:50;;;;;;;5.13;1.02;;;9.00;99.90;;;;;;5018654;28;20033;-73
2022/05/31 01:15:18;;;;;;;0.90;0.90;;;9.00;99.90;;;;;;5020241;28;20169;-73
2022/05/31 01:17:43;;;;;;;1.10;0.82;;;8.90;99.90;;;;;;5019520;28;20026;-73
2022/05/31 01:20:12;;;;;;;1.45;1.10;;;8.90;99.90;;;;;;5018102;28;20026;-73
2022/05/31 01:22:44;;;;;;;3.60;1.10;;;8.90;99.90;;;;;;5019297;28;20116;-73
2022/05/31 01:25:24;;;;;;;1.02;0.93;;;8.80;99.90;;;;;;5019193;28;20065;-74
2022/05/31 01:27:58;;;;;;;3.25;1.50;;;8.80;99.90;;;;;;5019165;28;20031;-73
2022/05/31 01:30:26;;;;;;;3.10;1.10;;;8.80;99.90;;;;;;5017574;28;20061;-73
2022/05/31 01:33:04;;;;;;;0.73;0.73;;;8.80;99.90;;;;;;5018067;28;20026;-73
2022/05/31 01:35:34;;;;;;;3.78;0.95;;;8.70;99.90;;;;;;5019515;28;20034;-73
2022/05/31 01:38:24;;;;;;;1.20;1.10;;;8.70;99.90;;;;;;5019176;28;20036;-73
2022/05/31 01:41:13;;;;;;;0.95;0.90;;;8.60;99.90;;;;;;5018945;28;20032;-74
2022/05/31 01:43:52;;;;;;;1.95;1.33;;;8.60;99.90;;;;;;5019142;28;20401;-73
2022/05/31 01:46:25;;;;;;;1.00;0.95;;;8.60;99.90;;;;;;5018115;28;20041;-73
2022/05/31 01:48:52;;;;;;;1.20;1.10;;;8.60;99.90;;;;;;5018288;28;20026;-73
2022/05/31 01:51:19;;;;;;;1.40;1.10;;;8.50;99.90;;;;;;5018185;28;20076;-73
2022/05/31 01:53:45;;;;;;;2.33;1.25;;;8.50;99.90;;;;;;5017726;28;20479;-73
2022/05/31 01:56:11;;;;;;;2.50;1.27;;;8.50;99.90;;;;;;5017252;28;20061;-73
2022/05/31 01:58:40;;;;;;;2.30;1.15;;;8.40;99.90;;;;;;5019204;28;20540;-74
2022/05/31 02:01:06;;;;;;;2.92;1.40;;;8.40;99.90;;;;;;5019283;28;20057;-73
2022/05/31 02:03:33;;;;;;;2.80;1.33;;;8.30;99.90;;;;;;5018800;28;20030;-73
2022/05/31 02:05:59;;;;;;;1.17;1.08;;;8.30;99.90;;;;;;5018643;28;20026;-73
2022/05/31 02:08:30;;;;;;;7.55;1.17;;;8.30;99.90;;;;;;5018469;28;20490;-74
2022/05/31 02:10:56;;;;;;;2.83;1.45;;;8.30;99.90;;;;;;5018742;28;20026;-73
2022/05/31 02:13:22;;;;;;;5.65;1.55;;;8.20;99.90;;;;;;5018794;28;20109;-74
2022/05/31 02:15:48;;;;;;;1.83;1.25;;;8.30;99.90;;;;;;5018360;28;20030;-73
2022/05/31 02:18:14;;;;;;;2.08;1.10;;;8.30;99.90;;;;;;5019079;28;20573;-74
2022/05/31 02:20:40;;;;;;;1.45;1.17;;;8.20;99.90;;;;;;5018502;28;20124;-74
2022/05/31 02:23:06;;;;;;;1.25;1.15;;;8.10;99.90;;;;;;5017985;28;20054;-73
2022/05/31 02:25:32;;;;;;;3.28;1.13;;;8.10;99.90;;;;;;5018514;28;20092;-74
2022/05/31 02:27:58;;;;;;;1.05;1.00;;;8.10;99.90;;;;;;5016883;28;20121;-73
2022/05/31 02:30:24;;;;;;;2.67;1.08;;;8.00;99.90;;;;;;5018130;28;20121;-73
2022/05/31 02:32:49;;;;;;;5.97;1.33;;;8.00;99.90;;;;;;5018353;28;20052;-73
2022/05/31 02:35:15;;;;;;;2.78;1.00;;;8.00;99.90;;;;;;5018057;28;20073;-73
2022/05/31 02:37:41;;;;;;;1.77;1.20;;;8.10;99.90;;;;;;5018072;28;20466;-73
2022/05/31 02:40:07;;;;;;;2.80;0.90;;;8.00;99.90;;;;;;5016499;28;20080;-74
2022/05/31 02:42:36;;;;;;;1.35;1.15;;;7.90;99.90;;;;;;5033379;28;20088;-73
2022/05/31 02:45:03;;;;;;;;;;;7.90;99.90;;;;;;5019031;28;20033;-74
2022/05/31 02:47:29;;;;;;;4.35;1.10;;;7.80;99.90;;;;;;5016384;28;19905;-73
2022/05/31 02:49:54;;;;;;;3.20;1.10;;;7.80;99.90;;;;;;5017659;28;20021;-73
2022/05/31 02:52:20;;;;;;;5.15;1.23;;;7.80;99.90;;;;;;5018240;28;20463;-73
2022/05/31 02:54:45;;;;;;;3.63;1.52;;;7.70;99.90;;;;;;5017790;28;20038;-74
2022/05/31 02:57:11;;;;;;;1.77;1.40;;;7.70;99.90;;;;;;5017545;28;20036;-73
2022/05/31 02:59:37;;;;;;;5.25;1.38;;;7.70;99.90;;;;;;5016555;28;20351;-73
2022/05/31 03:02:03;;;;;;;1.30;1.20;;;7.60;99.90;;;;;;5016502;28;20078;-72
2022/05/31 03:04:28;;;;;;;1.20;1.10;;;7.60;99.90;;;;;;5018069;28;20061;-73
2022/05/31 03:06:54;;;;;;;1.35;1.25;;;7.50;99.90;;;;;;5016359;28;20076;-73
2022/05/31 03:09:20;;;;;;;2.05;1.40;;;7.50;99.90;;;;;;5018373;28;20026;-72
2022/05/31 03:12:16;;;;;;;1.30;1.20;;;7.50;99.90;;;;;;5018141;28;20429;-73
2022/05/31 03:14:49;;;;;;;1.50;1.40;;;7.50;99.90;;;;;;5031271;28;20097;-74
2022/05/31 03:17:36;;;;;;;2.30;1.58;;;7.50;99.90;;;;;;5016864;28;20497;-73
2022/05/31 03:20:22;;;;;;;4.18;1.38;;;7.60;99.90;;;;;;5018484;28;20028;-73
2022/05/31 03:23:13;;;;;;;1.30;1.20;;;7.60;99.90;;;;;;5020138;28;20030;-73
2022/05/31 03:25:40;;;;;;;1.27;1.17;;;7.60;99.90;;;;;;5017982;28;20095;-74
2022/05/31 03:28:08;;;;;;;3.65;1.80;;;7.60;99.90;;;;;;5016764;28;20369;-73
2022/05/31 03:30:36;;;;;;;4.47;1.50;;;7.70;99.90;;;;;;5032071;28;20462;-73
2022/05/31 03:33:04;;;;;;;2.55;1.73;;;7.70;99.90;;;;;;5017125;28;20061;-74
2022/05/31 03:35:30;;;;;;;1.67;1.10;;;7.80;99.90;;;;;;5016977;28;20034;-74
2022/05/31 03:37:55;;;;;;;1.50;1.40;;;7.80;99.90;;;;;;5016677;28;20100;-74
2022/05/31 03:43:05;;;;;;;1.75;1.25;;;7.80;99.90;;;;;;5017439;28;20083;-73
2022/05/31 03:45:37;;;;;;;1.45;1.00;;;7.80;99.90;;;;;;5017247;28;20101;-73
2022/05/31 03:48:03;;;;;;;3.00;1.50;;;7.90;99.90;;;;;;5016754;28;20030;-73
2022/05/31 03:50:29;;;;;;;3.03;1.23;;;7.90;99.90;;;;;;5016185;28;20493;-74
2022/05/31 03:52:54;;;;;;;3.33;1.25;;;8.00;99.90;;;;;;5016856;28;20179;-73
2022/05/31 03:55:20;;;;;;;2.47;1.10;;;8.00;99.90;;;;;;5016308;28;20033;-74
2022/05/31 03:57:47;;;;;;;1.38;1.13;;;8.10;99.90;;;;;;5015488;28;20026;-73
2022/05/31 04:00:14;;;;;;;1.30;1.20;;;8.10;99.90;;;;;;5015538;28;20030;-74
2022/05/31 04:02:39;;;;;;;1.70;1.38;;;8.10;99.90;;;;;;5016437;28;20092;-73
2022/05/31 04:05:06;;;;;;;1.42;1.20;;;8.60;99.90;;;;;;5015334;28;20045;-73
2022/05/31 04:07:32;;;;;;;1.30;1.17;;;8.20;99.90;;;;;;5016499;28;20030;-73
2022/05/31 04:09:57;;;;;;;1.27;1.17;;;8.20;99.90;;;;;;5016385;28;20037;-73
2022/05/31 04:12:23;;;;;;;2.22;1.05;;;8.30;99.90;;;;;;5015300;28;20030;-74
2022/05/31 04:14:49;;;;;;;1.15;1.05;;;8.50;99.90;;;;;;5015693;28;20099;-74
2022/05/31 04:17:14;;;;;;;1.23;1.13;;;8.40;99.90;;;;;;5015397;28;20227;-74
2022/05/31 04:19:40;;;;;;;1.50;1.30;;;8.40;99.90;;;;;;5017515;28;20033;-75
2022/05/31 04:22:05;;;;;;;1.20;1.00;;;8.70;99.90;;;;;;5015293;28;20448;-75
2022/05/31 04:24:32;;;;;;;0.90;0.90;;;8.60;99.90;;;;;;5017667;28;20112;-75
2022/05/31 04:26:58;;;;;;;1.33;1.20;;;8.70;99.90;;;;;;5016747;28;20379;-76
2022/05/31 04:29:23;;;;;;;4.65;1.10;;;8.80;99.90;;;;;;5020579;28;20036;-75
2022/05/31 04:31:49;;;;;;;1.20;1.10;;;8.80;99.90;;;;;;5019913;28;20037;-76
2022/05/31 04:34:15;;;;;;;4.05;1.27;;;8.80;99.90;;;;;;5020748;28;20026;-76
2022/05/31 04:36:40;;;;;;;2.95;1.15;;;9.00;99.90;;;;;;5020444;28;20057;-75
2022/05/31 04:39:07;;;;;;;1.88;1.25;;;9.00;99.90;;;;;;5020172;28;20060;-76
2022/05/31 04:41:33;;;;;;;4.50;1.30;;;9.10;99.90;;;;;;5018790;28;20030;-76
2022/05/31 04:44:00;;;;;;;2.65;1.35;;;9.10;99.90;;;;;;5019669;28;20454;-75
2022/05/31 04:46:28;;;;;;;5.90;1.50;;;9.30;99.90;;;;;;5020082;28;20041;-75
2022/05/31 04:48:56;;;;;;;1.53;1.40;;;9.40;99.90;;;;;;5018804;28;20029;-75
2022/05/31 04:51:22;;;;;;;1.92;1.10;;;9.40;99.90;;;;;;5018646;28;20311;-75
2022/05/31 04:53:48;;;;;;;1.90;1.10;;;9.50;99.90;;;;;;5034659;28;20029;-75
2022/05/31 04:56:19;;;;;;;6.45;1.17;;;9.60;99.90;;;;;;5018924;28;20044;-75
2022/05/31 04:58:50;;;;;;;1.20;1.10;;;9.70;99.90;;;;;;5034323;28;20465;-75
2022/05/31 05:01:17;;;;;;;1.08;1.00;;;9.70;99.90;;;;;;5018477;28;20032;-75
2022/05/31 05:03:44;;;;;;;4.78;1.67;;;9.80;99.90;;;;;;5018967;28;20096;-75
2022/05/31 05:06:11;;;;;;;1.00;1.00;;;9.90;99.90;;;;;;5017701;28;20026;-74
2022/05/31 05:08:38;;;;;;;1.52;1.10;;;10.00;99.90;;;;;;5019110;28;20022;-74
2022/05/31 05:11:06;;;;;;;2.58;1.23;;;10.10;99.90;;;;;;5018660;28;20050;-74
2022/05/31 05:13:32;;;;;;;3.47;1.40;;;10.20;99.90;;;;;;5016697;28;20524;-74
2022/05/31 05:15:59;;;;;;;5.22;1.50;;;10.20;99.90;;;;;;5017011;28;20053;-75
2022/05/31 05:18:26;;;;;;;4.07;1.40;;;10.30;99.90;;;;;;5016192;28;20030;-74
2022/05/31 05:20:51;;;;;;;4.93;1.40;;;10.50;99.90;;;;;;5015921;28;20479;-74
2022/05/31 05:23:17;;;;;;;1.95;1.15;;;10.60;99.90;;;;;;5015877;28;20026;-75
2022/05/31 05:25:54;;;;;;;1.45;1.17;;;10.70;99.90;;;;;;5016160;28;20030;-74
2022/05/31 05:31:05;;;;;;;1.65;0.93;;;11.10;99.90;;;;;;5016955;28;20544;-75
2022/05/31 05:33:31;;;;;;;1.70;1.15;;;11.30;99.90;;;;;;5017001;28;20026;-75
2022/05/31 05:35:58;;;;;;;1.65;0.90;;;11.50;99.90;;;;;;5016404;28;20133;-75
2022/05/31 05:38:24;;;;;;;2.65;1.00;;;11.70;99.90;;;;;;5016548;28;20030;-75
2022/05/31 05:40:50;;;;;;;1.88;1.10;;;11.80;99.90;;;;;;5014430;28;20026;-75
2022/05/31 05:43:17;;;;;;;4.25;1.40;;;12.00;99.90;;;;;;5015395;28;20025;-75
2022/05/31 05:45:43;;;;;;;5.30;2.03;;;12.30;99.90;;;;;;5015021;28;20026;-75
2022/05/31 05:48:09;;;;;;;3.70;1.65;;;12.60;99.90;;;;;;5016944;28;20029;-75
2022/05/31 05:50:36;;;;;;;2.92;1.58;;;12.80;99.90;;;;;;5015215;28;20458;-75
2022/05/31 05:53:05;;;;;;;4.03;1.75;;;13.00;99.90;;;;;;5016164;28;20025;-75
2022/05/31 05:55:31;;;;;;;2.00;1.80;;;13.10;99.90;;;;;;5016118;28;20038;-76
2022/05/31 05:57:57;;;;;;;2.33;2.08;;;13.30;99.90;;;;;;5014483;28;20128;-76
2022/05/31 06:00:23;;;;;;;3.38;2.30;;;13.50;99.90;;;;;;5014866;28;20589;-76
2022/05/31 06:02:57;;;;;;;4.32;1.83;;;13.70;99.90;;;;;;5016372;28;20073;-76
2022/05/31 06:05:27;;;;;;;6.55;2.53;;;13.90;99.90;;;;;;5016393;28;20397;-76
2022/05/31 06:08:05;;;;;;;4.15;2.17;;;14.00;99.90;;;;;;5031218;28;20111;-76
2022/05/31 06:11:22;;;;;;;4.55;2.35;;;14.20;99.90;;;;;;5016015;28;20107;-76
2022/05/31 06:13:51;;;;;;;4.93;2.38;;;14.80;99.90;;;;;;4990235;28;20042;-77
2022/05/31 06:16:19;;;;;;;3.95;2.33;;;15.60;99.90;;;;;;5015720;28;20118;-76
2022/05/31 06:18:52;;;;;;;6.13;2.42;;;16.20;99.90;;;;;;5015494;28;20620;-77
2022/05/31 06:21:20;;;;;;;4.65;1.50;;;16.70;99.90;;;;;;5014491;28;20030;-77
2022/05/31 06:23:48;;;;;;;2.65;1.13;;;17.10;99.90;;;;;;5015647;28;20034;-76
2022/05/31 06:26:15;;;;;;;2.17;0.93;;;17.10;99.90;;;;;;5015866;28;20060;-77
2022/05/31 06:28:43;;;;;;;2.88;1.40;;;17.30;99.90;;;;;;5014231;28;20030;-77
2022/05/31 06:31:08;;;;;;;2.13;1.45;;;17.40;99.90;;;;;;5013895;28;20066;-77
2022/05/31 06:33:34;;;;;;;4.10;1.30;;;17.80;99.90;;;;;;5014121;28;20033;-77
2022/05/31 06:36:01;;;;;;;1.42;1.30;;;17.90;99.50;;;;;;5015536;28;20041;-77
2022/05/31 06:38:27;;;;;;;2.53;1.35;;;18.30;98.90;;;;;;5015929;28;20462;-74
2022/05/31 06:40:53;;;;;;;3.03;0.85;;;18.60;96.10;;;;;;5014914;28;20077;-75
2022/05/31 06:43:19;;;;;;;0.95;0.70;;;18.90;95.30;;;;;;5014078;28;20425;-75
2022/05/31 06:45:44;;;;;;;1.42;0.70;;;18.90;92.10;;;;;;5015218;28;20029;-76
2022/05/31 06:48:10;;;;;;;1.58;0.50;;;19.00;90.50;;;;;;5015372;28;20025;-76
2022/05/31 06:50:36;;;;;;;2.65;1.25;;;19.20;90.50;;;;;;5013831;28;20546;-76
2022/05/31 06:58:29;;;;;;;1.10;0.60;;;19.00;85.90;;;;;;5015051;28;20037;-77
2022/05/31 07:00:56;;;;;;;1.35;0.68;;;19.00;83.00;;;;;;5014945;28;20033;-78
2022/05/31 07:03:22;;;;;;;3.58;0.70;;;19.30;86.90;;;;;;5014975;28;20060;-75
2022/05/31 07:05:47;;;;;;;0.95;0.60;;;19.70;81.80;;;;;;5013597;28;20061;-75
2022/05/31 07:08:13;;;;;;;1.27;0.50;;;20.00;79.10;;;;;;5014699;28;20029;-75
2022/05/31 07:10:39;;;;;;;0.90;0.32;;;20.20;74.30;;;;;;5014841;28;20029;-75
2022/05/31 07:13:05;;;;;;;1.90;0.55;;;20.40;73.90;;;;;;5014249;28;20037;-77
2022/05/31 07:15:31;;;;;;;2.25;0.57;;;20.70;70.80;;;;;;5014138;28;20385;-78
2022/05/31 07:17:57;;;;;;;1.30;0.60;;;20.80;71.00;;;;;;5014014;28;20034;-77
2022/05/31 07:20:23;;;;;;;3.30;0.55;;;20.80;63.60;;;;;;5015243;28;20033;-75
2022/05/31 07:22:51;;;;;;;2.42;0.50;;;20.30;66.70;;;;;;5015368;28;20025;-77
2022/05/31 07:25:17;;;;;;;0.80;0.38;;;20.10;63.20;;;;;;5014742;28;20571;-75
2022/05/31 07:27:43;;;;;;;1.65;0.65;;;20.30;64.90;;;;;;5013434;28;20058;-76
2022/05/31 07:30:09;;;;;;;0.82;0.40;;;20.30;62.10;;;;;;5014170;28;20072;-75
2022/05/31 07:32:34;;;;;;;1.50;0.55;;;20.60;62.30;;;;;;5014403;28;20117;-75
2022/05/31 07:35:00;;;;;;;1.17;0.60;;;20.80;62.30;;;;;;5013416;28;20255;-76
2022/05/31 07:37:26;;;;;;;1.88;0.70;;;20.60;59.10;;;;;;5013408;28;20623;-76
2022/05/31 07:39:52;;;;;;;0.65;0.43;;;20.50;58.80;;;;;;5014846;28;20450;-75
2022/05/31 07:42:18;;;;;;;0.95;0.40;;;21.10;59.10;;;;;;5014488;28;20389;-74
2022/05/31 07:44:43;;;;;;;2.30;0.60;;;21.10;57.00;;;;;;5014342;28;20030;-75
2022/05/31 07:47:09;;;;;;;1.08;0.60;;;21.40;56.50;;;;;;5014612;28;20033;-74
2022/05/31 07:49:35;;;;;;;1.55;0.40;;;21.40;56.80;;;;;;5014285;28;20029;-74
2022/05/31 07:52:00;;;;;;;0.50;0.40;;;21.50;56.30;;;;;;5013877;28;20445;-76
2022/05/31 07:54:30;;;;;;;0.95;0.50;;;21.60;56.80;;;;;;5013012;28;20076;-76
2022/05/31 07:56:55;;;;;;;1.60;0.60;;;22.20;56.70;;;;;;5012778;28;20033;-76
2022/05/31 07:59:21;;;;;;;0.50;0.50;;;22.30;53.50;;;;;;5012903;28;20033;-76
2022/05/31 08:01:47;;;;;;;1.45;0.57;;;22.10;55.30;;;;;;5013494;28;20040;-74
2022/05/31 08:04:13;;;;;;;1.10;0.38;;;22.10;55.10;;;;;;5012883;28;20079;-74
2022/05/31 08:06:39;;;;;;;0.95;0.52;;;22.20;57.00;;;;;;5014310;28;20026;-76
2022/05/31 08:09:05;;;;;;;4.15;0.70;;;22.50;54.90;;;;;;5013998;28;20026;-74
2022/05/31 08:11:33;;;;;;;4.43;0.68;;;21.90;55.00;;;;;;5013914;28;20091;-73
2022/05/31 08:13:59;;;;;;;6.03;1.45;;;21.80;55.60;;;;;;5012764;28;20030;-74
2022/05/31 08:16:27;;;;;;;2.78;0.90;;;21.80;56.20;;;;;;5013626;28;20538;-76
2022/05/31 08:18:53;;;;;;;0.70;0.70;;;21.40;56.90;;;;;;5013831;28;20033;-73
2022/05/31 08:21:27;;;;;;;2.53;0.82;;;21.80;57.00;;;;;;5012496;28;20037;-76
2022/05/31 08:24:06;;;;;;;6.07;0.50;;;21.50;56.20;;;;;;5013842;28;20092;-76
2022/05/31 08:26:32;;;;;;;0.95;0.60;;;21.70;57.60;;;;;;5013808;28;20156;-76
2022/05/31 08:28:57;;;;;;;2.17;0.70;;;22.20;56.30;;;;;;5012746;28;20072;-73
2022/05/31 08:31:29;;;;;;;5.93;0.80;;;22.00;55.70;;;;;;5012304;28;20473;-73
2022/05/31 08:33:54;;;;;;;2.85;0.68;;;21.90;55.30;;;;;;5013863;28;20389;-74
2022/05/31 08:36:20;;;;;;;6.18;0.60;;;22.30;56.20;;;;;;5012345;28;20033;-75
2022/05/31 08:38:46;;;;;;;5.30;0.47;;;22.70;55.40;;;;;;5013721;28;20038;-76
2022/05/31 08:41:16;;;;;;;1.27;0.40;;;23.40;55.10;;;;;;5013702;28;20439;-76
2022/05/31 08:43:47;;;;;;;0.40;0.40;;;23.80;52.90;;;;;;5013842;28;20022;-76
2022/05/31 08:46:35;;;;;;;3.92;0.80;;;23.60;53.40;;;;;;5013638;28;20121;-76
2022/05/31 08:49:05;;;;;;;1.48;0.47;;;24.00;53.50;;;;;;5013779;28;20030;-76
2022/05/31 08:51:55;;;;;;;0.88;0.60;;;24.60;52.50;;;;;;5012498;28;20529;-76
2022/05/31 08:57:44;;;;;;;1.30;0.80;;;24.40;51.00;;;;;;5013651;28;20156;-76
2022/05/31 09:00:19;;;;;;;3.60;0.77;;;24.50;51.70;;;;;;5013311;28;20061;-76
2022/05/31 09:02:52;;;;;;;1.10;0.65;;;25.10;51.00;;;;;;5013577;28;20062;-76
2022/05/31 09:05:29;;;;;;;2.33;0.88;;;25.40;52.00;;;;;;5013531;28;20030;-76
2022/05/31 09:08:31;;;;;;;2.17;1.00;;;25.70;51.30;;;;;;5013490;28;20201;-76
2022/05/31 09:11:02;;;;;;;3.05;0.93;;;24.90;50.60;;;;;;5013611;28;20461;-76
2022/05/31 09:13:37;;;;;;;3.80;1.10;;;24.60;53.50;;;;;;5013437;28;20382;-76
2022/05/31 09:16:10;;;;;;;1.45;0.93;;;25.00;53.10;;;;;;5015504;28;20037;-76
2022/05/31 09:18:44;;;;;;;3.95;1.15;;;25.20;52.90;;;;;;5016971;28;20388;-76
2022/05/31 09:21:24;;;;;;;2.08;1.15;;;25.80;53.70;;;;;;5016648;28;20156;-76
2022/05/31 09:23:50;;;;;;;1.95;1.40;;;26.20;51.20;;;;;;5032219;28;20033;-76
2022/05/31 09:26:40;;;;;;;2.78;1.60;;;26.00;50.90;;;;;;5015448;28;20042;-76
2022/05/31 09:29:11;;;;;;;3.17;0.90;;;26.40;51.10;;;;;;5016846;28;20373;-76
2022/05/31 09:31:50;;;;;;;1.25;1.02;;;26.30;50.90;;;;;;5017496;28;20133;-76
2022/05/31 09:34:52;;;;;;;1.27;1.08;;;25.40;48.80;;;;;;5016717;28;20036;-76
2022/05/31 09:37:40;;;;;;;2.50;1.00;;;25.10;49.40;;;;;;5016522;28;20034;-76
2022/05/31 09:40:12;;;;;;;;;;;25.60;50.60;;;;;;5017398;28;20121;-76
2022/05/31 09:42:50;;;;;;;1.20;0.68;;;26.10;50.00;;;;;;5016455;28;19905;-76
2022/05/31 09:45:18;;;;;;;0.75;0.60;;;25.50;47.70;;;;;;5031613;28;20513;-76
2022/05/31 09:47:44;;;;;;;1.23;0.65;;;25.90;48.80;;;;;;5015180;28;20042;-76
2022/05/31 09:50:10;;;;;;;3.25;0.50;;;25.20;48.90;;;;;;5016374;28;20026;-75
2022/05/31 09:52:56;;;;;;;1.00;0.60;;;25.40;48.60;;;;;;5015081;28;20377;-76
2022/05/31 09:58:27;;;;;;;0.47;0.47;;;25.50;48.80;;;;;;5016134;28;20096;-76
2022/05/31 10:01:09;;;;;;;2.05;0.70;;;25.10;49.30;;;;;;5016318;28;20064;-76
2022/05/31 10:03:38;;;;;;;2.85;1.02;;;25.30;49.10;;;;;;5016127;28;20366;-75
2022/05/31 10:06:22;;;;;;;1.40;0.65;;;25.20;50.50;;;;;;5014809;28;20417;-75
2022/05/31 10:08:49;;;;;;;2.30;0.60;;;26.10;49.70;;;;;;5014775;28;20030;-75
2022/05/31 10:11:43;;;;;;;0.60;0.60;;;25.10;49.50;;;;;;5015921;28;20026;-72
2022/05/31 10:14:22;;;;;;;1.02;0.80;;;24.70;51.30;;;;;;5015957;28;20026;-75
2022/05/31 10:16:49;;;;;;;2.13;0.60;;;25.30;51.80;;;;;;5031360;28;20040;-76
2022/05/31 10:19:29;;;;;;;2.40;1.33;;;25.90;49.90;;;;;;5014429;28;20038;-75
2022/05/31 10:21:56;;;;;;;3.03;0.70;;;26.10;48.70;;;;;;5015653;28;20032;-75
2022/05/31 10:24:28;;;;;;;2.00;0.50;;;26.70;49.20;;;;;;5014675;28;20493;-76
2022/05/31 10:27:13;;;;;;;1.65;0.57;;;27.40;47.90;;;;;;5015376;28;20041;-76
2022/05/31 10:29:52;;;;;;;0.98;0.60;;;27.40;47.00;;;;;;5015541;28;20054;-76
2022/05/31 10:32:29;;;;;;;0.57;0.57;;;26.40;46.10;;;;;;5014561;28;20030;-75
2022/05/31 10:35:13;;;;;;;2.75;0.60;;;26.00;47.50;;;;;;5014233;28;20105;-76
2022/05/31 10:37:57;;;;;;;1.48;0.50;;;26.50;48.20;;;;;;5014301;28;20034;-75
2022/05/31 10:40:52;;;;;;;0.60;0.52;;;27.50;47.20;;;;;;5013914;28;20026;-76
2022/05/31 10:43:32;;;;;;;1.48;0.50;;;27.80;45.30;;;;;;4992548;28;20037;-76
2022/05/31 10:46:02;;;;;;;2.53;0.40;;;28.10;45.10;;;;;;5014172;28;20420;-75
2022/05/31 10:48:28;;;;;;;2.17;0.57;;;28.00;45.00;;;;;;5014311;28;20120;-76
2022/05/31 10:51:14;;;;;;;3.88;0.50;;;27.90;44.60;;;;;;5015994;28;20033;-75
2022/05/31 10:53:50;;;;;;;1.45;0.40;;;28.10;44.20;;;;;;5030693;28;20033;-76
2022/05/31 10:56:35;;;;;;;2.67;0.65;;;28.10;44.70;;;;;;5015097;28;20038;-75
2022/05/31 10:59:14;;;;;;;1.95;0.70;;;27.40;44.80;;;;;;5015140;28;20036;-75
2022/05/31 11:02:01;;;;;;;1.33;0.60;;;27.50;45.50;;;;;;5013957;28;20088;-75
2022/05/31 11:04:45;;;;;;;2.22;0.50;;;28.00;44.50;;;;;;5013809;28;20076;-76
2022/05/31 11:11:28;;;;;;;4.07;0.60;;;28.00;44.60;;;;;;5015015;28;20068;-75
2022/05/31 11:13:56;;;;;;;0.75;0.55;;;29.40;43.60;;;;;;5015027;28;20072;-75
2022/05/31 11:16:36;;;;;;;1.05;0.35;;;28.40;44.30;;;;;;5013337;28;20033;-75
2022/05/31 11:19:08;;;;;;;1.00;0.50;;;27.70;46.30;;;;;;5013615;28;20036;-75
2022/05/31 11:21:52;;;;;;;1.05;0.73;;;27.20;44.90;;;;;;5014676;28;20370;-75
2022/05/31 11:24:18;;;;;;;2.55;0.47;;;27.30;45.90;;;;;;5014654;28;20030;-75
2022/05/31 11:26:58;;;;;;;0.55;0.50;;;28.40;45.70;;;;;;5014870;28;20025;-75
2022/05/31 11:29:54;;;;;;;3.22;0.50;;;28.10;44.70;;;;;;5014008;28;20030;-75
2022/05/31 11:32:50;;;;;;;1.48;0.47;;;28.10;43.00;;;;;;5014114;28;20022;-75
2022/05/31 11:35:35;;;;;;;1.55;0.50;;;28.60;43.60;;;;;;5012737;28;20038;-75
2022/05/31 11:38:14;;;;;;;1.15;0.50;;;28.50;43.20;;;;;;5013736;28;20030;-75
2022/05/31 11:40:54;;;;;;;0.93;0.73;;;28.10;43.50;;;;;;5014449;28;20088;-75
2022/05/31 11:43:50;;;;;;;1.48;0.40;;;28.10;43.40;;;;;;5014208;28;20022;-76
2022/05/31 11:46:19;;;;;;;0.60;0.45;;;29.20;43.60;;;;;;5012999;28;20539;-76
2022/05/31 11:49:13;;;;;;;;;;;30.60;41.00;;;;;;5013587;28;20030;-75
2022/05/31 11:51:56;;;;;;;1.95;0.50;;;30.00;40.80;;;;;;5005033;28;19948;-76
2022/05/31 11:54:43;;;;;;;0.63;0.30;;;29.60;41.50;;;;;;5029609;28;20424;-76
2022/05/31 11:57:19;;;;;;;;;;;30.10;41.80;;;;;;5014443;28;20045;-75
2022/05/31 11:59:50;;;;;;;3.03;0.60;;;29.90;41.20;;;;;;5013837;28;20432;-75
2022/05/31 12:02:20;;;;;;;2.25;0.70;;;30.80;40.40;;;;;;5014301;28;20072;-76
2022/05/31 12:05:01;;;;;;;1.02;0.52;;;30.30;40.80;;;;;;5012773;28;20026;-75
2022/05/31 12:07:54;;;;;;;0.75;0.70;;;29.80;40.60;;;;;;5014270;28;20088;-76
2022/05/31 12:10:35;;;;;;;0.70;0.45;;;29.10;42.20;;;;;;5019069;28;20132;-76
2022/05/31 12:13:07;;;;;;;1.77;0.82;;;29.20;42.50;;;;;;5013824;28;20486;-75
2022/05/31 12:15:36;;;;;;;0.68;0.50;;;29.60;44.10;;;;;;5013902;28;20085;-75
2022/05/31 12:18:08;;;;;;;1.00;0.30;;;29.30;43.70;;;;;;5013878;28;20082;-75
2022/05/31 12:20:42;;;;;;;1.30;0.52;;;29.40;42.60;;;;;;5014352;28;20037;-75
2022/05/31 12:23:24;;;;;;;2.35;0.60;;;30.20;42.70;;;;;;5012703;28;20099;-75
2022/05/31 12:25:54;;;;;;;1.95;0.43;;;29.10;42.20;;;;;;5013830;28;20117;-75
2022/05/31 12:28:29;;;;;;;3.05;0.70;;;29.60;43.10;;;;;;5013692;28;20026;-74
2022/05/31 12:31:08;;;;;;;1.23;0.73;;;30.60;42.10;;;;;;5014152;28;20042;-74
2022/05/31 12:33:41;;;;;;;0.50;0.50;;;30.70;40.00;;;;;;5013836;28;20033;-76
2022/05/31 12:36:09;;;;;;;0.95;0.60;;;31.30;40.50;;;;;;5012979;28;20038;-74
2022/05/31 12:38:54;;;;;;;0.60;0.60;;;30.10;40.00;;;;;;5013898;28;20025;-75
2022/05/31 12:41:40;;;;;;;0.50;0.50;;;29.40;40.90;;;;;;5013625;28;20030;-74
2022/05/31 12:44:27;;;;;;;1.45;0.63;;;29.20;42.30;;;;;;5013676;28;20029;-75
2022/05/31 12:46:53;;;;;;;2.00;0.57;;;29.60;40.40;;;;;;5012012;28;20033;-75
2022/05/31 12:49:28;;;;;;;0.70;0.63;;;30.00;41.50;;;;;;5015924;28;20033;-75
2022/05/31 12:52:18;;;;;;;1.05;0.95;;;30.20;40.90;;;;;;5017468;28;20037;-74
2022/05/31 12:54:56;;;;;;;0.85;0.35;;;30.60;40.50;;;;;;5017622;28;20033;-74
2022/05/31 12:57:30;;;;;;;5.72;0.77;;;29.80;41.00;;;;;;5017622;28;20029;-75
2022/05/31 12:59:56;;;;;;;2.08;0.43;;;29.40;42.10;;;;;;5016403;28;20405;-75
2022/05/31 13:02:34;;;;;;;1.33;0.40;;;29.30;41.40;;;;;;5017353;28;20032;-74
2022/05/31 13:05:06;;;;;;;1.77;0.47;;;28.70;40.70;;;;;;5017371;28;20030;-74
2022/05/31 13:07:47;;;;;;;1.00;0.90;;;28.50;41.60;;;;;;5032146;28;20030;-75
2022/05/31 13:10:34;;;;;;;0.50;0.32;;;28.80;41.30;;;;;;5017161;28;20106;-74
2022/05/31 13:21:27;;;;;;;0.40;0.40;;;28.60;41.90;;;;;;5016732;28;20095;-74
2022/05/31 13:23:53;;;;;;;1.88;0.47;;;28.80;41.50;;;;;;5016923;28;20034;-75
2022/05/31 13:26:24;;;;;;;1.20;0.73;;;29.80;41.90;;;;;;5015621;28;20030;-76
2022/05/31 13:29:10;;;;;;;0.85;0.60;;;30.30;40.40;;;;;;5016535;28;20393;-75
2022/05/31 13:31:48;;;;;;;0.90;0.30;;;30.90;39.20;;;;;;5016342;28;20089;-75
2022/05/31 13:34:28;;;;;;;0.90;0.22;;;31.60;40.00;;;;;;5016404;28;20354;-77
2022/05/31 13:36:55;;;;;;;0.60;0.30;;;32.20;38.40;;;;;;5015883;28;20370;-77
2022/05/31 13:39:21;;;;;;;0.98;0.28;;;30.70;38.60;;;;;;5015305;28;20386;-76
2022/05/31 13:41:56;;;;;;;0.43;0.38;;;29.80;39.90;;;;;;5016210;28;20026;-77
2022/05/31 13:44:28;;;;;;;1.67;0.40;;;30.00;40.40;;;;;;5016522;28;20034;-76